Flight Track Log - Related Links

Times and Time Zones

All times are in EST time to prevent confusion due to time zone crossing. See the EJA583 flight status page for this flight to view local times or setup timezone preferences in your user account.

Time Position Orientation Groundspeed Altitude Reporting Facility
EST Latitude Longitude Course Direction KTS MPH feet Rate Location/Type
Wed 03:10:49 PM 35.8881 -78.7864 29° Northeast 171 197 1,600  Level Washington Center
Wed 03:11:44 PM 35.9306 -78.7575 29° Northeast 207 238 5,300 4,030 Climbing Washington Center
Wed 03:11:56 PM 35.9433 -78.7453 38° Northeast 236 272 6,100 4,500 Climbing Washington Center
Wed 03:12:56 PM 36.0031 -78.7039 29° Northeast 243 280 10,700 3,570 Climbing Washington Center
Wed 03:13:57 PM 36.0653 -78.6344 42° Northeast 269 310 13,300 2,115 Climbing Washington Center
Wed 03:14:58 PM 36.1317 -78.5650 40° Northeast 291 335 15,000 857 Climbing Washington Center
Wed 03:15:56 PM 36.2025 -78.4878 41° Northeast 318 366 15,000  Level Washington Center
Wed 03:16:57 PM 36.2644 -78.4256 39° Northeast 318 366 15,000  Level Washington Center
Wed 03:17:58 PM 36.3369 -78.3586 37° Northeast 302 348 15,000  Level Washington Center
Wed 03:18:56 PM 36.3947 -78.3014 39° Northeast 296 341 15,000  Level Washington Center
Wed 03:19:56 PM 36.4669 -78.2367 36° Northeast 296 341 15,000  Level Washington Center
Wed 03:20:57 PM 36.5331 -78.1744 37° Northeast 296 341 15,000  Level Washington Center
Wed 03:21:57 PM 36.5989 -78.1144 36° Northeast 296 341 15,000 -744 Level Washington Center
Wed 03:22:58 PM 36.6564 -78.0567 39° Northeast 291 335 13,500 -1,488 Descending Washington Center
Wed 03:23:58 PM 36.7181 -78.0017 36° Northeast 279 321 12,000 -1,525 Descending Washington Center
Wed 03:24:56 PM 36.7756 -77.9439 39° Northeast 274 315 10,500 -1,017 Descending Washington Center
Wed 03:25:56 PM 36.8328 -77.8936 35° Northeast 274 315 10,000 -248 Descending Washington Center
Wed 03:26:57 PM 36.8922 -77.8408 35° Northeast 262 302 10,000  Level Washington Center
Wed 03:27:57 PM 36.9517 -77.7958 31° Northeast 252 290 10,000  Level Washington Center
Wed 03:28:57 PM 37.0067 -77.7456 36° Northeast 247 284 10,000 -347 Level Washington Center
Wed 03:29:58 PM 37.0639 -77.6950 35° Northeast 242 278 9,300 -1,091 Descending Washington Center
Wed 03:30:58 PM 37.1189 -77.6469 35° Northeast 242 278 7,800 -1,525 Descending Washington Center
Wed 03:31:56 PM 37.1783 -77.5964 34° Northeast 242 278 6,300 -1,513 Descending Washington Center
Wed 03:32:57 PM 37.2333 -77.5508 33° Northeast 242 278 4,800 -1,426 Descending Washington Center
Wed 03:33:58 PM 37.2903 -77.5028 34° Northeast 242 278 3,400 -893 Descending Washington Center
Wed 03:34:58 PM 37.3433 -77.4439 41° Northeast 242 278 3,000 -606 Descending Washington Center
Wed 03:37:16 PM 37.4500 -77.3500 35° Northeast 156 180 1,400 -758 Descending Potomac TRACON
Wed 03:38:16 PM 37.4833 -77.3333 22° Northeast 125 144 500 -900 Descending Potomac TRACON
Wed 03:40:00 PM 37.5000 -77.3167 North  Level FlightAware Approximate

Login

Don't have an account? Register now (free) for customized features, flight alerts, and more!